Time;durP1;ratioP1;P1;durP2;ratioP2;P2;SDS_P1;SDS_P2;PMS_P1;PMS_P2;Temp;Humidity;BMP_temperature;BMP_pressure;BME280_temperature;BME280_humidity;BME280_pressure;Samples;Min_cycle;Max_cycle;Signal;HPM_P1;HPM_P2
2022/09/18 04:00:10;;;;;;;7.63;1.23;;;6.60;96.30;;;;;;6094967;23;20705;31
2022/09/18 04:02:36;;;;;;;8.60;1.17;;;6.60;96.30;;;;;;4932067;29;20591;-77
2022/09/18 04:05:02;;;;;;;11.30;1.93;;;6.60;96.30;;;;;;4931837;29;20484;-78
2022/09/18 04:07:28;;;;;;;14.33;2.30;;;6.60;96.30;;;;;;4919909;29;20172;-77
2022/09/18 04:09:53;;;;;;;11.53;1.80;;;6.60;96.30;;;;;;4919571;29;20430;-78
2022/09/18 04:12:19;;;;;;;7.97;1.60;;;6.60;96.30;;;;;;4927440;29;20218;-78
2022/09/18 04:14:45;;;;;;;8.87;2.27;;;6.60;96.30;;;;;;4931536;29;20176;-77
2022/09/18 04:17:10;;;;;;;10.23;1.50;;;6.60;96.30;;;;;;4930512;29;20179;-79
2022/09/18 04:19:36;;;;;;;6.57;1.80;;;6.60;96.30;;;;;;4936845;29;20671;-77
2022/09/18 04:22:02;;;;;;;5.90;1.73;;;6.60;96.30;;;;;;4946009;29;20215;-77
2022/09/18 04:24:28;;;;;;;4.67;1.10;;;6.60;96.30;;;;;;4942862;29;20183;-78
2022/09/18 04:26:53;;;;;;;5.07;1.87;;;6.60;96.30;;;;;;4954235;29;20985;-77
2022/09/18 04:29:19;;;;;;;6.30;1.30;;;6.60;96.30;;;;;;4944681;29;20742;-78
2022/09/18 04:31:44;;;;;;;7.83;1.70;;;6.60;96.30;;;;;;4955534;29;20911;-78
2022/09/18 04:34:10;;;;;;;13.73;1.70;;;6.60;96.30;;;;;;4947501;29;20183;-78
2022/09/18 04:36:35;;;;;;;9.73;1.87;;;6.60;96.30;;;;;;4959116;29;20278;-78
2022/09/18 04:39:00;;;;;;;11.07;3.13;;;6.70;96.30;;;;;;4952915;29;20187;-78
2022/09/18 04:41:26;;;;;;;13.20;2.30;;;6.70;96.30;;;;;;4954232;29;20286;-78
2022/09/18 04:43:52;;;;;;;7.80;1.53;;;6.60;96.30;;;;;;4941782;29;20186;-78
2022/09/18 04:46:17;;;;;;;4.13;1.33;;;6.60;96.30;;;;;;4950157;29;20360;-78
2022/09/18 04:48:46;;;;;;;7.53;1.90;;;6.60;96.30;;;;;;4954105;29;20191;-79
2022/09/18 04:51:12;;;;;;;7.60;1.70;;;6.60;96.30;;;;;;4955954;29;20211;-79
2022/09/18 04:53:39;;;;;;;14.40;1.40;;;6.60;96.30;;;;;;4959093;29;20827;-78
2022/09/18 04:56:04;;;;;;;6.80;1.30;;;6.60;96.30;;;;;;4959691;29;20175;-79
2022/09/18 04:58:30;;;;;;;9.87;1.50;;;6.50;96.30;;;;;;4951218;29;20404;-78
2022/09/18 05:00:55;;;;;;;9.97;1.40;;;6.60;96.30;;;;;;4959383;29;20226;-79
2022/09/18 05:03:21;;;;;;;8.60;1.70;;;6.60;96.30;;;;;;4945581;29;20180;-79
2022/09/18 05:05:47;;;;;;;5.40;1.13;;;6.60;96.30;;;;;;4957384;29;20540;-79
2022/09/18 05:08:13;;;;;;;9.40;1.43;;;6.60;96.30;;;;;;4938173;29;20179;-78
2022/09/18 05:10:38;;;;;;;9.90;1.70;;;6.60;96.30;;;;;;4944267;29;20447;-77
2022/09/18 05:13:04;;;;;;;7.70;1.60;;;6.60;96.30;;;;;;4953894;29;20187;-79
2022/09/18 05:15:30;;;;;;;9.53;1.50;;;6.70;96.30;;;;;;4942314;28;20211;-78
2022/09/18 05:18:00;;;;;;;7.80;1.23;;;6.70;96.30;;;;;;4941482;29;20171;-79
2022/09/18 05:20:26;;;;;;;5.47;1.63;;;6.70;96.30;;;;;;4971594;28;20179;-78
2022/09/18 05:22:52;;;;;;;5.77;1.20;;;6.70;96.30;;;;;;4955207;29;20845;-78
2022/09/18 05:25:19;;;;;;;9.13;2.37;;;6.70;96.30;;;;;;4955158;29;20410;-79
2022/09/18 05:27:55;;;;;;;7.47;1.60;;;6.70;96.30;;;;;;4954468;29;20206;-78
2022/09/18 05:30:21;;;;;;;5.73;1.20;;;6.70;96.30;;;;;;4937456;29;20511;-80
2022/09/18 05:32:55;;;;;;;10.57;1.23;;;6.70;96.30;;;;;;4951866;29;20522;-80
2022/09/18 05:35:22;;;;;;;6.97;1.30;;;6.70;96.30;;;;;;4954461;29;20962;-78
2022/09/18 05:37:52;;;;;;;7.10;1.90;;;6.70;96.30;;;;;;4943731;29;20469;-78
2022/09/18 05:40:19;;;;;;;6.40;1.73;;;6.70;96.30;;;;;;4952396;29;20415;-78
2022/09/18 05:42:45;;;;;;;8.23;2.00;;;6.80;96.30;;;;;;4959906;28;20422;-79
2022/09/18 05:45:12;;;;;;;6.57;1.47;;;6.70;96.30;;;;;;4941242;29;20431;-79
2022/09/18 05:47:38;;;;;;;10.53;1.70;;;6.80;96.30;;;;;;4936456;29;20923;-78
2022/09/18 05:50:04;;;;;;;7.20;1.00;;;6.90;96.30;;;;;;4950678;28;20427;-81
2022/09/18 05:52:30;;;;;;;14.87;1.93;;;6.90;96.30;;;;;;4936336;28;20709;-79
2022/09/18 05:54:55;;;;;;;3.37;1.27;;;6.90;96.30;;;;;;4951173;29;20175;-78
2022/09/18 05:57:20;;;;;;;6.20;1.37;;;6.90;96.30;;;;;;4936405;29;20953;-77
2022/09/18 05:59:46;;;;;;;6.60;1.87;;;6.80;96.30;;;;;;4934569;28;20179;-79
2022/09/18 06:02:11;;;;;;;6.60;1.20;;;6.80;96.30;;;;;;4936392;29;20207;-78
2022/09/18 06:04:37;;;;;;;8.00;1.43;;;6.90;96.30;;;;;;4936361;29;20640;-77
2022/09/18 06:07:04;;;;;;;6.47;1.40;;;6.90;96.30;;;;;;4936241;29;20171;-77
2022/09/18 06:09:29;;;;;;;14.07;2.90;;;7.00;96.30;;;;;;4935763;29;20266;-78
2022/09/18 06:11:55;;;;;;;9.30;1.87;;;7.00;96.30;;;;;;4934727;29;21010;-77
2022/09/18 06:14:21;;;;;;;5.97;1.60;;;7.10;96.30;;;;;;4936149;29;20258;-77
2022/09/18 06:16:46;;;;;;;10.37;2.07;;;7.10;96.30;;;;;;4936105;29;20511;-77
2022/09/18 06:19:12;;;;;;;10.03;1.50;;;7.20;96.30;;;;;;4934350;28;20764;-78
2022/09/18 06:21:39;;;;;;;9.50;1.30;;;7.20;96.30;;;;;;4950693;28;20199;-78
2022/09/18 06:24:04;;;;;;;7.70;1.63;;;7.20;96.30;;;;;;4935367;29;20202;-79
2022/09/18 06:26:30;;;;;;;7.17;1.30;;;7.30;96.30;;;;;;4934705;29;20959;-78
2022/09/18 06:28:55;;;;;;;5.87;1.20;;;7.40;96.30;;;;;;4935004;29;20183;-79
2022/09/18 06:31:21;;;;;;;8.83;1.33;;;7.50;96.30;;;;;;4933587;28;20335;-79
2022/09/18 06:33:47;;;;;;;7.10;2.20;;;7.50;96.30;;;;;;4946525;28;20178;-78
2022/09/18 06:36:13;;;;;;;3.73;1.40;;;7.40;96.30;;;;;;4955847;29;20683;-78
2022/09/18 06:38:39;;;;;;;5.93;1.03;;;7.30;96.30;;;;;;4956962;29;20504;-78
2022/09/18 06:41:05;;;;;;;6.80;1.30;;;7.10;96.30;;;;;;4954704;29;20688;-78
2022/09/18 06:43:30;;;;;;;11.93;1.23;;;7.10;96.30;;;;;;4954890;29;20414;-79
2022/09/18 06:45:56;;;;;;;7.60;1.20;;;7.20;96.30;;;;;;4954833;29;20182;-78
2022/09/18 06:48:23;;;;;;;2.30;1.30;;;7.30;96.30;;;;;;4954141;29;20194;-78
2022/09/18 06:50:57;;;;;;;7.33;1.40;;;7.20;96.30;;;;;;4938206;29;20451;-78
2022/09/18 06:53:23;;;;;;;10.47;1.97;;;7.30;96.30;;;;;;4935526;29;20415;-77
2022/09/18 06:55:49;;;;;;;7.63;2.20;;;7.40;96.30;;;;;;4934853;29;20441;-77
2022/09/18 06:58:16;;;;;;;5.10;1.40;;;7.50;96.30;;;;;;4934348;29;20415;-77
2022/09/18 07:00:43;;;;;;;2.83;1.30;;;7.50;96.30;;;;;;4937619;29;20463;-77
2022/09/18 07:03:09;;;;;;;6.77;1.60;;;7.60;96.30;;;;;;4930739;29;20432;-77
2022/09/18 07:05:39;;;;;;;11.33;1.27;;;7.70;96.30;;;;;;4916152;29;20419;-77
2022/09/18 07:08:05;;;;;;;7.03;1.40;;;7.60;96.30;;;;;;4915522;29;20430;-78
2022/09/18 07:10:30;;;;;;;4.80;1.17;;;7.50;96.30;;;;;;4918193;29;20808;-77
2022/09/18 07:12:57;;;;;;;3.73;1.00;;;7.60;96.30;;;;;;4932585;29;20188;-78
2022/09/18 07:15:23;;;;;;;4.37;1.00;;;7.70;96.30;;;;;;4931930;29;20175;-77
2022/09/18 07:17:53;;;;;;;7.07;1.27;;;7.80;96.30;;;;;;4949382;29;21285;-77
2022/09/18 07:20:19;;;;;;;5.33;1.57;;;8.00;96.30;;;;;;4949558;29;20928;-77
2022/09/18 07:22:54;;;;;;;2.70;1.13;;;8.10;96.30;;;;;;4934841;29;20510;-77
2022/09/18 07:25:21;;;;;;;3.83;1.03;;;7.80;96.30;;;;;;4934995;29;20209;-76
2022/09/18 07:27:46;;;;;;;4.67;1.20;;;7.70;96.30;;;;;;4934799;29;20416;-77
2022/09/18 07:30:12;;;;;;;6.60;1.30;;;7.60;96.30;;;;;;4949286;29;20427;-77
2022/09/18 07:32:38;;;;;;;5.97;1.30;;;7.70;96.30;;;;;;4934656;29;20278;-77
2022/09/18 07:35:03;;;;;;;3.30;1.13;;;7.70;96.30;;;;;;4934597;29;20176;-78
2022/09/18 07:37:29;;;;;;;6.67;1.80;;;7.70;96.30;;;;;;4949128;29;20180;-78
2022/09/18 07:39:54;;;;;;;8.50;1.40;;;7.80;96.30;;;;;;4950293;28;20171;-78
2022/09/18 07:42:20;;;;;;;6.70;1.30;;;7.80;96.30;;;;;;4970528;28;20206;-77
2022/09/18 07:44:46;;;;;;;2.20;0.90;;;7.70;96.30;;;;;;4956609;29;20177;-78
2022/09/18 07:47:11;;;;;;;5.90;1.00;;;7.80;96.30;;;;;;4956678;29;20665;-78
2022/09/18 07:49:37;;;;;;;4.17;1.20;;;7.90;96.30;;;;;;4957602;29;20261;-78
2022/09/18 07:52:03;;;;;;;8.97;1.67;;;7.90;96.30;;;;;;4957529;28;20203;-78
2022/09/18 07:54:30;;;;;;;8.00;1.97;;;8.10;96.30;;;;;;4957741;28;20515;-78
2022/09/18 07:56:55;;;;;;;4.63;1.50;;;8.40;96.30;;;;;;4957656;28;20465;-78
2022/09/18 07:59:20;;;;;;;5.00;1.43;;;8.70;96.30;;;;;;4957390;29;20423;-77
2022/09/18 08:01:47;;;;;;;6.17;1.30;;;9.20;96.30;;;;;;4957433;29;20724;-78
2022/09/18 08:04:12;;;;;;;3.63;1.03;;;9.30;96.30;;;;;;4956328;29;20258;-78
2022/09/18 08:06:37;;;;;;;2.47;1.37;;;9.40;96.30;;;;;;4957389;29;20973;-78
2022/09/18 08:09:03;;;;;;;7.87;3.00;;;9.30;96.30;;;;;;4955946;29;20194;-77
2022/09/18 08:11:28;;;;;;;3.83;1.30;;;9.30;96.30;;;;;;4955912;29;20207;-78
2022/09/18 08:13:54;;;;;;;4.67;1.30;;;9.30;96.30;;;;;;4956075;29;20199;-77
2022/09/18 08:16:20;;;;;;;6.13;1.10;;;9.30;96.30;;;;;;4955963;29;20539;-77
2022/09/18 08:18:46;;;;;;;3.90;1.27;;;9.40;96.30;;;;;;4957010;28;20186;-77
2022/09/18 08:21:12;;;;;;;5.47;1.57;;;9.70;96.30;;;;;;4957061;28;20443;-77
2022/09/18 08:23:37;;;;;;;7.43;1.67;;;9.50;96.30;;;;;;4957084;29;20428;-77
2022/09/18 08:26:03;;;;;;;8.03;1.73;;;9.40;96.30;;;;;;4955791;29;20189;-77
2022/09/18 08:28:29;;;;;;;5.93;1.60;;;9.30;96.30;;;;;;4956773;28;20266;-78
2022/09/18 08:30:58;;;;;;;5.07;1.13;;;9.10;96.30;;;;;;4956941;28;20512;-78
2022/09/18 08:33:24;;;;;;;6.00;1.63;;;8.90;96.30;;;;;;4955725;29;20571;-76
2022/09/18 08:35:49;;;;;;;5.80;1.03;;;8.80;96.30;;;;;;4955580;29;20431;-78
2022/09/18 08:38:15;;;;;;;5.63;1.20;;;9.10;96.30;;;;;;4955353;29;20193;-78
2022/09/18 08:41:11;;;;;;;6.83;1.50;;;9.70;96.30;;;;;;4952845;28;20196;-78
2022/09/18 08:43:50;;;;;;;5.33;1.20;;;10.00;96.30;;;;;;4952387;29;20176;-78
2022/09/18 08:46:36;;;;;;;5.80;1.53;;;9.90;96.30;;;;;;4937686;29;20824;-78
2022/09/18 08:49:30;;;;;;;2.70;1.37;;;10.00;96.30;;;;;;4937366;29;20415;-77
2022/09/18 08:51:58;;;;;;;6.10;1.20;;;9.80;96.30;;;;;;4935452;29;20467;-77
2022/09/18 08:54:46;;;;;;;5.50;1.10;;;9.70;96.30;;;;;;4952138;29;20423;-77
2022/09/18 08:57:21;;;;;;;6.00;1.00;;;9.80;96.30;;;;;;4937288;29;20420;-77
2022/09/18 08:59:58;;;;;;;6.37;1.73;;;10.00;96.30;;;;;;4937179;28;20402;-76
2022/09/18 09:02:36;;;;;;;7.73;1.40;;;10.20;96.30;;;;;;4935967;29;20463;-77
2022/09/18 09:05:07;;;;;;;3.03;1.07;;;10.50;96.30;;;;;;4937199;29;20892;-77
2022/09/18 09:08:02;;;;;;;5.23;1.77;;;10.60;96.30;;;;;;4937175;28;20431;-77
2022/09/18 09:10:38;;;;;;;7.23;1.70;;;10.50;96.30;;;;;;4937046;29;20475;-77
2022/09/18 09:13:27;;;;;;;6.90;1.43;;;10.60;96.30;;;;;;4936955;29;20431;-77
2022/09/18 09:16:00;;;;;;;6.07;2.10;;;11.10;96.30;;;;;;4936994;29;20895;-77
2022/09/18 09:18:40;;;;;;;5.83;1.30;;;11.30;96.30;;;;;;4936802;29;20415;-76
2022/09/18 09:21:20;;;;;;;7.60;1.40;;;11.60;96.30;;;;;;4951557;29;20530;-77
2022/09/18 09:24:01;;;;;;;1.47;1.00;;;11.50;96.30;;;;;;4937129;29;20415;-77
2022/09/18 09:26:31;;;;;;;8.53;1.70;;;10.90;96.30;;;;;;4951571;29;20508;-77
2022/09/18 09:29:11;;;;;;;5.13;1.00;;;10.80;96.30;;;;;;4936586;29;20419;-77
2022/09/18 09:31:45;;;;;;;7.50;1.60;;;10.90;96.30;;;;;;4938896;29;20461;-77
2022/09/18 09:34:13;;;;;;;7.57;1.20;;;11.40;96.30;;;;;;4936577;29;20427;-77
2022/09/18 09:36:41;;;;;;;8.23;1.50;;;11.20;96.30;;;;;;4962981;28;20442;-78
2022/09/18 09:39:39;;;;;;;8.10;1.50;;;11.30;96.30;;;;;;4948230;29;20433;-76
2022/09/18 09:42:15;;;;;;;2.00;0.93;;;11.00;96.30;;;;;;4955438;29;20443;-76
2022/09/18 09:44:49;;;;;;;8.57;1.20;;;10.40;96.30;;;;;;4955722;29;20426;-76
2022/09/18 09:47:44;;;;;;;3.20;0.90;;;12.00;96.30;;;;;;4955719;28;20446;-79
2022/09/18 09:50:35;;;;;;;2.47;1.17;;;13.80;96.30;;;;;;4955218;28;20394;-77
2022/09/18 09:53:06;;;;;;;3.60;1.37;;;15.00;96.30;;;;;;4955603;29;20480;-76
2022/09/18 09:55:54;;;;;;;3.97;1.20;;;13.90;96.30;;;;;;4970311;28;20438;-77
2022/09/18 09:59:04;;;;;;;5.47;1.13;;;15.10;96.30;;;;;;4938742;29;20420;-78
2022/09/18 10:01:48;;;;;;;3.13;0.87;;;15.50;96.30;;;;;;4906407;29;20515;-77
2022/09/18 10:04:51;;;;;;;3.27;1.00;;;15.60;96.30;;;;;;4932493;29;20831;-78
2022/09/18 10:07:38;;;;;;;6.53;1.23;;;14.10;96.30;;;;;;4924436;29;20892;-78
2022/09/18 10:10:35;;;;;;;3.53;0.90;;;12.90;96.30;;;;;;4926859;29;20412;-78
2022/09/18 10:13:05;;;;;;;4.10;1.43;;;13.30;96.30;;;;;;4931580;29;20462;-76
2022/09/18 10:15:40;;;;;;;4.33;1.30;;;13.20;96.30;;;;;;4940977;29;20514;-75
2022/09/18 10:18:15;;;;;;;3.13;0.97;;;12.80;96.30;;;;;;4932455;29;20994;-77
2022/09/18 10:20:42;;;;;;;10.03;1.40;;;12.80;96.30;;;;;;4931368;28;20943;-76
2022/09/18 10:23:27;;;;;;;6.13;0.93;;;13.70;96.30;;;;;;4922417;29;20516;-76
2022/09/18 10:25:58;;;;;;;6.67;1.07;;;13.30;96.30;;;;;;4933101;29;20455;-76
2022/09/18 10:28:28;;;;;;;3.90;0.90;;;12.60;96.30;;;;;;4934954;29;20434;-76
2022/09/18 10:36:18;;;;;;;5.67;0.93;;;10.10;96.30;;;;;;5728623;23;20852;-76
2022/09/18 10:38:44;;;;;;;3.13;1.20;;;9.80;96.30;;;;;;4971174;28;20422;-76
2022/09/18 10:41:20;;;;;;;3.03;1.00;;;10.40;96.30;;;;;;4976661;28;20449;-77
2022/09/18 10:44:16;;;;;;;3.13;1.20;;;11.50;96.30;;;;;;4956332;28;20174;-78
2022/09/18 10:47:22;;;;;;;4.27;1.00;;;12.90;96.30;;;;;;4969331;28;20422;-77
2022/09/18 10:49:48;;;;;;;5.10;1.40;;;12.90;96.30;;;;;;4954906;28;20435;-77
2022/09/18 10:52:35;;;;;;;5.10;1.20;;;12.50;96.30;;;;;;4971373;28;20466;-78
2022/09/18 10:55:11;;;;;;;2.80;0.87;;;11.80;96.30;;;;;;4968657;28;20992;-78
2022/09/18 10:57:42;;;;;;;2.40;1.10;;;11.40;96.30;;;;;;4970068;28;20420;-77
2022/09/18 11:00:11;;;;;;;4.37;1.27;;;11.20;96.30;;;;;;4955579;28;20501;-77
2022/09/18 11:02:45;;;;;;;3.33;1.00;;;11.30;96.30;;;;;;4953085;28;20422;-77
2022/09/18 11:05:22;;;;;;;5.47;1.10;;;11.80;96.30;;;;;;4958477;28;20401;-77
2022/09/18 11:07:49;;;;;;;3.43;1.53;;;11.80;96.30;;;;;;4968333;28;21013;-78
2022/09/18 11:10:17;;;;;;;7.10;1.23;;;11.90;96.30;;;;;;4961988;28;20422;-78
2022/09/18 11:12:52;;;;;;;5.27;2.00;;;11.90;96.30;;;;;;4953942;28;20482;-77
2022/09/18 11:15:20;;;;;;;6.20;1.30;;;11.70;96.30;;;;;;4960990;28;20424;-78
2022/09/18 11:17:52;;;;;;;8.90;1.63;;;11.80;96.30;;;;;;4955917;28;20488;-78
2022/09/18 11:20:42;;;;;;;3.20;1.00;;;12.30;96.30;;;;;;4954166;28;20457;-79
2022/09/18 11:23:20;;;;;;;4.50;1.27;;;12.10;96.30;;;;;;4957599;28;20480;-78
2022/09/18 11:25:46;;;;;;;3.10;0.90;;;11.60;96.30;;;;;;4962043;28;20417;-79
2022/09/18 11:28:31;;;;;;;6.10;1.03;;;11.60;96.30;;;;;;4953343;28;20422;-78
2022/09/18 11:31:05;;;;;;;3.17;1.17;;;11.60;96.30;;;;;;4953626;28;20802;-79
2022/09/18 11:33:53;;;;;;;4.50;1.13;;;11.40;96.30;;;;;;4964927;28;20820;-77
2022/09/18 11:36:27;;;;;;;3.03;1.10;;;11.40;96.30;;;;;;4963624;28;20429;-77
2022/09/18 11:38:53;;;;;;;5.50;1.13;;;11.20;96.30;;;;;;4968363;28;20560;-77
2022/09/18 11:41:35;;;;;;;8.07;1.37;;;11.00;96.30;;;;;;4966457;28;20865;-76
2022/09/18 11:44:02;;;;;;;2.60;1.00;;;10.90;96.30;;;;;;4972957;28;20421;-77
2022/09/18 11:47:09;;;;;;;3.20;0.80;;;11.30;96.30;;;;;;4973093;28;20521;-77
2022/09/18 11:49:40;;;;;;;1.90;1.03;;;11.90;96.30;;;;;;4949643;28;20425;-77
2022/09/18 11:52:27;;;;;;;3.07;1.20;;;12.00;96.30;;;;;;4972661;28;20495;-77
2022/09/18 11:55:35;;;;;;;6.27;1.40;;;12.00;96.30;;;;;;4971730;28;20417;-77
2022/09/18 11:58:04;;;;;;;3.03;0.90;;;12.30;96.30;;;;;;4972215;28;20468;-77
2022/09/18 12:00:41;;;;;;;2.03;1.10;;;12.40;96.30;;;;;;4973156;28;20401;-77
2022/09/18 12:03:38;;;;;;;3.43;1.20;;;11.80;96.30;;;;;;4973166;28;20955;-75
2022/09/18 12:06:07;;;;;;;1.93;0.90;;;11.50;96.30;;;;;;4971643;28;20471;-76
2022/09/18 12:08:50;;;;;;;3.30;1.50;;;11.30;96.30;;;;;;4972366;28;20928;-74
2022/09/18 12:11:29;;;;;;;2.43;1.00;;;11.30;96.30;;;;;;4972843;28;20473;-75
2022/09/18 12:14:08;;;;;;;2.50;1.00;;;11.30;96.30;;;;;;4986453;28;20440;-74
2022/09/18 12:16:56;;;;;;;3.87;1.37;;;11.10;96.30;;;;;;4997783;28;20787;-74
2022/09/18 12:19:49;;;;;;;1.10;0.90;;;11.10;96.30;;;;;;4978369;28;20845;-75
2022/09/18 12:22:39;;;;;;;5.27;1.03;;;11.20;96.30;;;;;;4960421;28;20441;-75
2022/09/18 12:25:12;;;;;;;3.80;1.00;;;11.10;96.30;;;;;;4962466;28;20527;-74
2022/09/18 12:27:45;;;;;;;3.33;1.13;;;11.30;96.30;;;;;;4988327;28;20428;-74
2022/09/18 12:30:15;;;;;;;3.03;0.97;;;11.30;96.30;;;;;;4981401;28;20456;-75
2022/09/18 12:33:16;;;;;;;3.83;1.23;;;11.10;96.30;;;;;;4986536;28;20835;-76
2022/09/18 12:36:12;;;;;;;3.97;0.90;;;11.20;96.30;;;;;;4963859;28;20811;-74
2022/09/18 12:38:50;;;;;;;7.73;1.23;;;11.30;96.30;;;;;;4989736;28;20422;-75
2022/09/18 12:41:24;;;;;;;3.87;1.57;;;11.30;96.30;;;;;;4990442;28;20452;-74
2022/09/18 12:44:04;;;;;;;2.70;0.80;;;11.20;96.30;;;;;;4982094;28;20435;-74
2022/09/18 12:46:53;;;;;;;3.00;1.23;;;11.30;96.30;;;;;;4970120;28;20421;-75
2022/09/18 12:49:43;;;;;;;4.70;2.07;;;11.30;96.30;;;;;;4980546;28;20906;-76
2022/09/18 12:53:02;;;;;;;3.23;0.70;;;11.20;96.30;;;;;;4964829;28;20458;-76
2022/09/18 12:55:43;;;;;;;3.00;0.97;;;11.00;96.30;;;;;;4928074;29;20431;-77
2022/09/18 12:58:33;;;;;;;2.80;1.47;;;10.80;96.30;;;;;;4972325;28;20421;-77
2022/09/18 13:01:08;;;;;;;1.77;0.80;;;10.50;96.30;;;;;;4962245;28;20948;-78
2022/09/18 13:03:36;;;;;;;3.10;1.00;;;10.20;96.30;;;;;;4985932;28;20429;-77
2022/09/18 13:06:10;;;;;;;2.43;1.10;;;10.40;96.30;;;;;;4975035;28;20508;-77
2022/09/18 13:08:47;;;;;;;1.53;0.80;;;10.40;96.30;;;;;;4991005;28;20890;-77
2022/09/18 13:11:49;;;;;;;4.37;1.23;;;10.30;96.30;;;;;;4983487;28;20460;-77
2022/09/18 13:14:28;;;;;;;5.80;1.43;;;10.60;96.30;;;;;;4995542;28;20505;-78
2022/09/18 13:17:22;;;;;;;3.43;0.90;;;10.60;96.30;;;;;;4992859;28;20487;-77
2022/09/18 13:19:58;;;;;;;3.13;1.23;;;10.30;96.30;;;;;;4968069;28;20426;-77
2022/09/18 13:22:29;;;;;;;3.77;1.23;;;10.20;96.30;;;;;;4974664;28;20433;-77
2022/09/18 13:24:56;;;;;;;3.80;1.10;;;10.30;96.30;;;;;;4988945;28;20414;-78
2022/09/18 13:27:23;;;;;;;4.27;1.03;;;10.50;96.30;;;;;;4983570;28;20448;-78
2022/09/18 13:29:52;;;;;;;3.73;1.30;;;10.60;96.30;;;;;;4983421;28;20505;-77
2022/09/18 13:32:24;;;;;;;3.50;1.20;;;10.50;96.30;;;;;;4988657;28;20802;-78
2022/09/18 13:34:53;;;;;;;4.80;1.23;;;10.50;96.30;;;;;;4975470;28;20413;-78
2022/09/18 13:37:21;;;;;;;4.70;1.27;;;10.70;96.30;;;;;;4974267;28;20432;-78
2022/09/18 13:39:50;;;;;;;6.97;1.23;;;10.80;96.30;;;;;;4974007;28;20406;-76
2022/09/18 13:42:36;;;;;;;2.00;0.87;;;10.90;96.30;;;;;;4974544;28;20456;-77
2022/09/18 13:45:05;;;;;;;3.70;1.30;;;10.90;96.30;;;;;;4989901;28;21015;-77
2022/09/18 13:47:30;;;;;;;3.97;1.10;;;10.80;96.30;;;;;;4974427;28;20568;-78
2022/09/18 13:49:59;;;;;;;1.93;1.17;;;10.90;96.30;;;;;;4973543;28;20960;-78
2022/09/18 13:52:40;;;;;;;2.60;1.13;;;10.70;96.30;;;;;;4974438;28;20208;-78
2022/09/18 13:55:12;;;;;;;2.07;1.07;;;10.60;96.30;;;;;;4974285;28;20425;-77
2022/09/18 13:57:42;;;;;;;4.30;1.10;;;10.50;96.30;;;;;;4987005;28;20420;-77
2022/09/18 14:00:19;;;;;;;1.10;0.70;;;10.50;96.30;;;;;;4988720;28;20424;-77
2022/09/18 14:03:11;;;;;;;3.83;1.33;;;10.40;96.30;;;;;;4974618;28;20398;-78
2022/09/18 14:05:42;;;;;;;3.80;1.60;;;10.20;96.30;;;;;;4972932;28;20425;-77
2022/09/18 14:08:20;;;;;;;4.93;1.23;;;10.00;96.30;;;;;;4974053;28;20421;-76
2022/09/18 14:10:45;;;;;;;5.60;1.17;;;9.80;96.30;;;;;;4977626;28;20460;-75
2022/09/18 14:13:20;;;;;;;1.50;0.97;;;9.70;96.30;;;;;;4974020;28;20549;-75
2022/09/18 14:16:09;;;;;;;3.40;1.23;;;9.50;96.30;;;;;;4974048;28;20173;-76
2022/09/18 14:18:47;;;;;;;2.33;1.00;;;9.50;96.30;;;;;;4973861;28;20394;-74
2022/09/18 14:21:25;;;;;;;4.80;1.80;;;9.40;96.30;;;;;;4973984;28;20471;-75
2022/09/18 14:24:22;;;;;;;5.93;2.90;;;9.30;96.30;;;;;;4974313;28;20874;-76
2022/09/18 14:26:57;;;;;;;1.03;0.80;;;9.30;96.30;;;;;;4974191;28;20421;-76
2022/09/18 14:29:30;;;;;;;2.30;1.30;;;9.40;96.30;;;;;;4973363;28;20418;-76
2022/09/18 14:31:58;;;;;;;1.40;0.90;;;9.30;96.30;;;;;;4973932;28;20461;-79
2022/09/18 14:34:36;;;;;;;2.67;0.90;;;9.40;96.30;;;;;;4972943;28;20409;-77
2022/09/18 14:37:19;;;;;;;1.90;0.93;;;9.50;96.30;;;;;;4972551;28;20857;-77
2022/09/18 14:39:45;;;;;;;3.37;1.10;;;9.50;96.30;;;;;;4973278;28;20764;-77
2022/09/18 14:42:17;;;;;;;2.13;1.03;;;9.60;96.30;;;;;;4989512;28;20444;-76
2022/09/18 14:44:53;;;;;;;2.53;1.00;;;9.60;96.30;;;;;;4993403;28;20416;-77
2022/09/18 14:47:22;;;;;;;1.60;1.00;;;9.60;96.30;;;;;;4993279;28;20476;-77
2022/09/18 14:49:48;;;;;;;2.50;0.90;;;9.50;96.30;;;;;;4991906;28;20440;-77
2022/09/18 14:52:26;;;;;;;3.90;1.40;;;9.50;96.30;;;;;;4992859;28;20540;-77
2022/09/18 14:54:54;;;;;;;2.03;0.97;;;9.40;96.30;;;;;;4981020;28;20433;-76
2022/09/18 14:57:27;;;;;;;5.43;1.17;;;9.40;96.30;;;;;;4958152;28;20426;-74
2022/09/18 14:59:55;;;;;;;1.97;0.93;;;9.20;96.30;;;;;;4953914;29;20403;-74
2022/09/18 15:02:30;;;;;;;2.33;1.10;;;9.10;96.30;;;;;;4954294;28;20497;-75
2022/09/18 15:04:56;;;;;;;1.10;0.80;;;9.00;96.30;;;;;;4954324;29;20474;-74
2022/09/18 15:07:22;;;;;;;2.20;0.90;;;8.90;96.30;;;;;;4954073;28;20422;-74
2022/09/18 15:09:51;;;;;;;1.67;0.90;;;8.90;96.30;;;;;;4973853;28;20528;-74
2022/09/18 15:12:20;;;;;;;1.47;0.80;;;8.90;96.30;;;;;;4993033;28;20201;-75
2022/09/18 15:14:46;;;;;;;1.13;0.70;;;8.70;96.30;;;;;;4992935;28;20435;-74
2022/09/18 15:17:21;;;;;;;1.73;0.83;;;8.70;96.30;;;;;;4992618;28;20409;-75
2022/09/18 15:20:06;;;;;;;0.90;0.63;;;8.60;96.30;;;;;;4974775;28;20428;-74
2022/09/18 15:22:31;;;;;;;1.30;0.87;;;8.60;96.30;;;;;;4978700;28;20441;-75
2022/09/18 15:25:00;;;;;;;4.50;0.80;;;8.50;96.30;;;;;;4973627;28;20426;-75
2022/09/18 15:27:27;;;;;;;2.20;0.70;;;8.40;96.30;;;;;;4979401;28;20522;-75
2022/09/18 15:30:03;;;;;;;2.03;0.80;;;8.40;96.30;;;;;;4972210;28;20414;-75
2022/09/18 15:32:33;;;;;;;1.37;0.83;;;8.40;96.30;;;;;;4974759;28;20476;-75
2022/09/18 15:34:59;;;;;;;1.57;0.80;;;8.30;96.30;;;;;;4992200;28;20409;-75
2022/09/18 15:37:26;;;;;;;0.90;0.70;;;8.20;96.30;;;;;;4976186;28;20948;-75
2022/09/18 15:40:05;;;;;;;6.50;1.00;;;8.20;96.30;;;;;;4971178;28;20228;-74
2022/09/18 15:42:49;;;;;;;1.00;0.67;;;8.20;96.30;;;;;;4972798;28;20929;-74
2022/09/18 15:45:20;;;;;;;1.30;0.63;;;8.20;96.30;;;;;;4981542;28;20924;-74
2022/09/18 15:47:46;;;;;;;0.90;0.60;;;8.20;96.30;;;;;;4978731;28;20406;-75
2022/09/18 15:50:11;;;;;;;1.83;0.80;;;8.20;96.30;;;;;;4972487;28;20413;-73
2022/09/18 15:52:41;;;;;;;1.10;0.60;;;8.10;96.30;;;;;;4983916;28;20495;-74
2022/09/18 15:55:22;;;;;;;1.20;0.70;;;8.10;96.30;;;;;;4980449;28;20182;-74
2022/09/18 15:57:52;;;;;;;1.20;0.70;;;8.00;96.30;;;;;;5006642;28;20428;-75
2022/09/18 16:00:23;;;;;;;1.10;0.80;;;7.80;96.30;;;;;;4979945;28;20568;-75
2022/09/18 16:03:01;;;;;;;1.00;0.60;;;7.80;96.30;;;;;;4974839;28;20434;-75
2022/09/18 16:05:29;;;;;;;1.90;0.80;;;7.80;96.30;;;;;;4986340;28;20416;-75
2022/09/18 16:08:00;;;;;;;1.30;0.70;;;7.70;96.30;;;;;;4981005;28;20425;-75
2022/09/18 16:10:38;;;;;;;1.10;0.77;;;7.60;96.30;;;;;;4988870;28;20416;-75
2022/09/18 16:13:10;;;;;;;1.37;0.90;;;7.60;96.30;;;;;;4977749;28;20472;-76
2022/09/18 16:15:36;;;;;;;1.00;0.70;;;7.50;96.30;;;;;;4975684;28;20508;-75
2022/09/18 16:18:02;;;;;;;1.40;0.83;;;7.50;96.30;;;;;;4975000;28;20890;-75
2022/09/18 16:20:35;;;;;;;1.20;0.80;;;7.40;96.30;;;;;;4991848;28;20491;-75
2022/09/18 16:23:23;;;;;;;0.90;0.70;;;7.40;96.30;;;;;;4983407;28;20447;-74
2022/09/18 16:26:12;;;;;;;1.13;0.70;;;7.30;96.30;;;;;;4982011;28;20467;-75
2022/09/18 16:28:47;;;;;;;1.20;0.80;;;7.30;96.30;;;;;;4984035;28;21209;-75
2022/09/18 16:59:43;;;;;;;1.00;0.70;;;6.90;96.30;;;;;;5080180;23;20492;-80
2022/09/18 17:02:11;;;;;;;1.20;0.90;;;6.90;96.30;;;;;;4971277;28;20438;-80
2022/09/18 17:04:37;;;;;;;0.97;0.70;;;6.90;96.30;;;;;;4955158;28;20418;-80
2022/09/18 17:07:02;;;;;;;1.00;0.77;;;6.90;96.30;;;;;;4954170;29;20465;-80
2022/09/18 17:09:28;;;;;;;1.10;0.97;;;6.90;96.30;;;;;;4944165;28;20203;-79
2022/09/18 17:11:54;;;;;;;0.90;0.60;;;6.90;96.30;;;;;;4951771;28;20304;-78
2022/09/18 17:14:20;;;;;;;1.87;0.70;;;6.90;96.30;;;;;;4951236;28;20246;-77
2022/09/18 17:16:45;;;;;;;2.07;0.80;;;6.80;96.30;;;;;;4951745;29;20184;-79
2022/09/18 17:19:11;;;;;;;1.10;0.80;;;6.80;96.30;;;;;;4930550;29;20533;-79
2022/09/18 17:21:37;;;;;;;1.20;0.90;;;6.80;96.30;;;;;;4937698;29;20187;-81
2022/09/18 17:24:03;;;;;;;2.23;0.90;;;6.80;96.30;;;;;;4939148;29;20187;-81
2022/09/18 17:26:29;;;;;;;1.30;0.90;;;6.80;96.30;;;;;;4939328;29;20415;-81
2022/09/18 17:28:58;;;;;;;1.83;0.70;;;6.80;96.30;;;;;;4938276;29;20500;-81
2022/09/18 17:31:25;;;;;;;1.67;1.20;;;6.80;96.30;;;;;;4936733;29;20490;-81
2022/09/18 17:33:51;;;;;;;3.20;0.70;;;6.80;96.30;;;;;;4939718;29;20442;-81
2022/09/18 17:36:17;;;;;;;1.00;0.63;;;6.80;96.30;;;;;;4942760;29;20416;-81
2022/09/18 17:38:43;;;;;;;1.00;0.70;;;6.80;96.30;;;;;;4946389;29;20450;-81
2022/09/18 17:41:11;;;;;;;1.27;0.70;;;6.80;96.30;;;;;;4947182;29;20419;-81
2022/09/18 17:43:38;;;;;;;1.00;0.70;;;6.80;96.30;;;;;;4946277;29;20613;-81
2022/09/18 17:46:05;;;;;;;1.07;0.63;;;6.80;96.30;;;;;;4948057;29;20426;-81
2022/09/18 17:48:31;;;;;;;1.00;0.70;;;6.70;96.30;;;;;;4947867;29;20471;-82
2022/09/18 17:51:05;;;;;;;1.30;0.70;;;6.70;96.30;;;;;;4930530;29;20432;-81
2022/09/18 17:53:32;;;;;;;1.03;0.80;;;6.70;96.30;;;;;;4924967;29;20179;-82